Time;durP1;ratioP1;P1;durP2;ratioP2;P2;SDS_P1;SDS_P2;PMS_P1;PMS_P2;Temp;Humidity;BMP_temperature;BMP_pressure;BME280_temperature;BME280_humidity;BME280_pressure;Samples;Min_cycle;Max_cycle;Signal;HPM_P1;HPM_P2
2023/04/21 00:01:58;;;;;;;1.90;1.80;;;19.10;43.90;;;;;;5017830;28;20223;-65
2023/04/21 00:04:23;;;;;;;1.60;1.50;;;19.10;44.00;;;;;;5018339;28;20222;-68
2023/04/21 00:06:49;;;;;;;1.83;1.73;;;19.10;43.90;;;;;;5017495;28;20988;-65
2023/04/21 00:09:15;;;;;;;1.70;1.60;;;19.10;43.90;;;;;;5016738;28;20228;-65
2023/04/21 00:11:41;;;;;;;4.30;1.90;;;19.10;43.90;;;;;;5016495;28;20242;-70
2023/04/21 00:14:06;;;;;;;1.83;1.73;;;19.10;43.90;;;;;;5015081;28;20856;-66
2023/04/21 00:16:32;;;;;;;2.10;2.00;;;19.10;44.00;;;;;;5017752;28;20661;-66
2023/04/21 00:18:58;;;;;;;1.90;1.80;;;19.10;43.90;;;;;;5016558;28;20624;-65
2023/04/21 00:21:24;;;;;;;1.90;1.80;;;19.10;43.90;;;;;;5015944;28;21279;-72
2023/04/21 00:23:49;;;;;;;2.00;1.90;;;19.10;43.90;;;;;;5015339;28;20222;-68
2023/04/21 00:26:15;;;;;;;1.90;1.80;;;19.10;44.00;;;;;;5012424;28;20223;-63
2023/04/21 00:28:40;;;;;;;1.87;1.77;;;19.10;43.90;;;;;;5011308;28;20223;-66
2023/04/21 00:31:06;;;;;;;2.20;2.00;;;19.10;43.90;;;;;;5013504;28;20927;-63
2023/04/21 00:33:31;;;;;;;1.70;1.60;;;19.10;44.00;;;;;;5019194;28;20222;-63
2023/04/21 00:35:58;;;;;;;2.13;2.03;;;19.10;44.00;;;;;;5013335;28;20218;-69
2023/04/21 00:38:23;;;;;;;1.97;1.77;;;19.10;43.90;;;;;;5012528;28;20229;-68
2023/04/21 00:40:49;;;;;;;2.20;2.10;;;19.10;44.00;;;;;;5015331;28;21001;-64
2023/04/21 00:43:15;;;;;;;1.93;1.83;;;19.10;43.90;;;;;;5017294;28;20231;-69
2023/04/21 00:45:40;;;;;;;1.70;1.60;;;19.10;44.00;;;;;;5014743;28;20647;-71
2023/04/21 00:48:06;;;;;;;1.70;1.60;;;19.10;44.00;;;;;;5012115;28;20234;-63
2023/04/21 00:50:31;;;;;;;2.20;2.00;;;19.10;44.00;;;;;;5016136;28;20272;-64
2023/04/21 00:52:57;;;;;;;1.80;1.70;;;19.10;44.00;;;;;;5011941;28;20233;-65
2023/04/21 00:55:23;;;;;;;1.87;1.77;;;19.10;44.00;;;;;;5017058;28;20234;-67
2023/04/21 00:57:52;;;;;;;4.00;2.10;;;19.10;44.00;;;;;;5016154;28;20786;-64
2023/04/21 01:00:18;;;;;;;2.00;1.90;;;19.10;44.00;;;;;;5021669;28;21396;-67
2023/04/21 01:02:44;;;;;;;2.20;2.10;;;19.10;44.00;;;;;;5018186;28;20444;-68
2023/04/21 01:05:10;;;;;;;1.77;1.67;;;19.10;44.00;;;;;;5017734;28;20222;-64
2023/04/21 01:07:36;;;;;;;2.00;1.90;;;19.10;44.10;;;;;;5015628;28;20438;-64
2023/04/21 01:10:02;;;;;;;1.83;1.73;;;19.10;44.00;;;;;;5019465;28;20935;-64
2023/04/21 01:12:28;;;;;;;2.00;1.90;;;19.10;44.00;;;;;;5013661;28;20464;-67
2023/04/21 01:14:53;;;;;;;2.07;1.97;;;19.10;44.10;;;;;;5018345;28;20896;-63
2023/04/21 01:17:19;;;;;;;2.00;1.90;;;19.10;44.00;;;;;;5015154;28;20627;-66
2023/04/21 01:19:46;;;;;;;2.00;1.90;;;19.10;44.00;;;;;;5016818;28;20227;-64
2023/04/21 01:22:14;;;;;;;2.20;2.10;;;19.10;44.10;;;;;;5019937;28;20217;-65
2023/04/21 01:24:42;;;;;;;1.90;1.80;;;19.10;44.00;;;;;;5021326;28;20952;-70
2023/04/21 01:27:13;;;;;;;3.07;2.00;;;19.10;43.90;;;;;;5019417;28;20464;-65
2023/04/21 01:29:39;;;;;;;2.40;2.30;;;19.10;44.00;;;;;;5017714;28;20427;-65
2023/04/21 01:32:12;;;;;;;2.00;1.90;;;19.10;44.00;;;;;;5015871;28;20464;-64
2023/04/21 01:34:39;;;;;;;2.23;2.13;;;19.10;44.00;;;;;;5017554;28;20545;-67
2023/04/21 01:37:07;;;;;;;2.20;2.10;;;19.10;43.90;;;;;;5017030;28;20461;-64
2023/04/21 01:39:33;;;;;;;2.00;1.90;;;19.10;44.10;;;;;;5018720;28;21041;-64
2023/04/21 01:41:58;;;;;;;2.00;1.90;;;19.10;44.00;;;;;;5016342;28;20426;-64
2023/04/21 01:44:24;;;;;;;1.90;1.80;;;19.10;44.00;;;;;;5017122;28;20257;-67
2023/04/21 01:46:50;;;;;;;2.00;1.90;;;19.10;44.00;;;;;;5015033;28;20637;-69
2023/04/21 01:49:16;;;;;;;2.10;2.00;;;19.10;44.00;;;;;;5014651;28;20497;-63
2023/04/21 01:51:42;;;;;;;2.20;2.10;;;19.10;44.00;;;;;;5015845;28;20215;-65
2023/04/21 01:54:08;;;;;;;1.87;1.77;;;19.10;44.00;;;;;;5019803;28;20226;-63
2023/04/21 01:56:33;;;;;;;1.97;1.87;;;19.10;43.90;;;;;;5015696;28;20234;-64
2023/04/21 01:58:59;;;;;;;2.20;2.10;;;19.10;44.00;;;;;;5011519;28;20228;-64
2023/04/21 02:01:24;;;;;;;3.37;1.97;;;19.10;44.00;;;;;;5015420;28;20951;-66
2023/04/21 02:03:50;;;;;;;2.10;2.00;;;19.10;44.00;;;;;;5016787;28;20288;-64
2023/04/21 02:06:16;;;;;;;2.10;2.00;;;19.10;44.00;;;;;;5012020;28;20229;-68
2023/04/21 02:08:42;;;;;;;2.17;2.07;;;19.10;44.10;;;;;;5012479;28;20231;-69
2023/04/21 02:11:07;;;;;;;2.07;1.97;;;19.10;44.00;;;;;;5013764;28;20440;-65
2023/04/21 02:13:33;;;;;;;2.27;2.17;;;19.10;44.00;;;;;;5013989;28;20218;-64
2023/04/21 02:15:58;;;;;;;2.40;2.30;;;19.10;44.00;;;;;;5014941;28;20215;-64
2023/04/21 02:18:24;;;;;;;2.17;2.07;;;19.10;44.00;;;;;;5014417;28;20234;-67
2023/04/21 02:20:50;;;;;;;2.20;2.10;;;19.10;44.00;;;;;;5013539;28;20314;-66
2023/04/21 02:23:16;;;;;;;2.10;2.00;;;19.10;44.00;;;;;;5014564;28;20218;-65
2023/04/21 02:25:41;;;;;;;2.00;1.90;;;19.10;44.80;;;;;;5006426;28;20227;-65
2023/04/21 02:28:07;;;;;;;2.10;2.00;;;19.10;44.00;;;;;;5009183;28;20219;-64
2023/04/21 02:30:34;;;;;;;2.30;2.20;;;19.10;44.10;;;;;;5010591;28;20250;-64
2023/04/21 02:32:59;;;;;;;2.17;2.07;;;19.10;44.00;;;;;;5009939;28;20302;-72
2023/04/21 02:35:25;;;;;;;1.90;1.80;;;19.10;44.10;;;;;;5013095;28;20444;-67
2023/04/21 02:37:50;;;;;;;2.30;2.10;;;19.10;44.10;;;;;;5010842;28;20231;-65
2023/04/21 02:40:16;;;;;;;2.37;2.27;;;19.10;44.10;;;;;;5018235;28;20304;-63
2023/04/21 02:42:41;;;;;;;2.10;2.00;;;19.10;44.00;;;;;;5019856;28;20222;-68
2023/04/21 02:45:07;;;;;;;2.17;2.07;;;19.10;44.00;;;;;;5015988;28;20254;-69
2023/04/21 02:47:33;;;;;;;2.43;2.33;;;19.10;44.00;;;;;;5015206;28;20223;-69
2023/04/21 02:49:59;;;;;;;2.00;1.90;;;19.10;44.00;;;;;;5015903;28;20478;-64
2023/04/21 02:52:24;;;;;;;1.93;1.83;;;19.10;44.00;;;;;;5012879;28;20222;-66
2023/04/21 02:54:50;;;;;;;2.10;2.00;;;19.10;44.00;;;;;;5016415;28;20223;-71
2023/04/21 02:57:15;;;;;;;2.20;2.10;;;19.10;44.10;;;;;;5014121;28;20312;-63
2023/04/21 02:59:41;;;;;;;2.10;2.00;;;19.00;44.00;;;;;;5010247;28;20230;-66
2023/04/21 03:02:06;;;;;;;2.27;2.17;;;19.10;44.00;;;;;;5017362;28;20292;-66
2023/04/21 03:04:32;;;;;;;2.40;2.30;;;19.10;44.10;;;;;;5013752;28;20652;-66
2023/04/21 03:06:58;;;;;;;2.23;2.13;;;19.10;44.00;;;;;;5017104;28;20222;-66
2023/04/21 03:09:24;;;;;;;2.10;2.00;;;19.00;43.90;;;;;;5014131;28;20219;-65
2023/04/21 03:11:49;;;;;;;2.20;2.10;;;19.00;43.90;;;;;;5014308;28;20691;-68
2023/04/21 03:14:15;;;;;;;2.10;2.00;;;19.10;44.10;;;;;;5014186;28;20344;-66
2023/04/21 03:16:40;;;;;;;2.10;1.90;;;19.10;44.10;;;;;;5014498;28;20233;-66
2023/04/21 03:19:06;;;;;;;2.40;2.30;;;19.00;43.90;;;;;;5014422;28;20710;-70
2023/04/21 03:21:31;;;;;;;2.73;2.63;;;19.10;44.00;;;;;;5013566;28;20233;-68
2023/04/21 03:23:57;;;;;;;2.50;2.40;;;19.10;44.00;;;;;;5011075;28;20234;-64
2023/04/21 03:26:22;;;;;;;2.40;2.20;;;19.10;44.00;;;;;;5017625;28;20325;-67
2023/04/21 03:28:48;;;;;;;2.37;2.27;;;19.10;44.00;;;;;;5016214;28;20258;-68
2023/04/21 03:31:13;;;;;;;2.43;2.33;;;19.00;44.00;;;;;;5014887;28;20226;-71
2023/04/21 03:33:39;;;;;;;2.00;1.90;;;19.10;44.10;;;;;;5014258;28;20223;-67
2023/04/21 03:36:05;;;;;;;2.20;2.10;;;19.10;44.10;;;;;;5013442;28;20226;-64
2023/04/21 03:38:31;;;;;;;2.47;2.30;;;19.10;44.10;;;;;;5011896;28;20222;-67
2023/04/21 03:40:56;;;;;;;2.17;2.07;;;19.10;44.10;;;;;;5012393;28;20430;-69
2023/04/21 03:43:22;;;;;;;2.30;2.20;;;19.00;43.90;;;;;;5029165;28;20222;-63
2023/04/21 03:45:47;;;;;;;2.13;2.03;;;19.10;44.00;;;;;;5013854;28;20230;-66
2023/04/21 03:48:13;;;;;;;1.87;1.77;;;19.10;44.00;;;;;;5014482;28;20227;-67
2023/04/21 03:50:38;;;;;;;2.50;2.40;;;19.10;44.10;;;;;;5018416;28;20460;-64
2023/04/21 03:53:04;;;;;;;2.10;2.00;;;19.10;44.10;;;;;;5016327;28;20211;-66
2023/04/21 03:55:29;;;;;;;2.30;2.20;;;19.00;44.00;;;;;;5014497;28;20261;-64
2023/04/21 03:57:55;;;;;;;2.30;2.20;;;19.10;44.10;;;;;;5013918;28;20276;-64
2023/04/21 04:00:20;;;;;;;2.30;2.20;;;19.10;44.10;;;;;;5011425;28;20297;-66
2023/04/21 04:02:46;;;;;;;2.40;2.30;;;19.00;44.00;;;;;;5013781;28;20222;-63
2023/04/21 04:05:12;;;;;;;2.30;2.20;;;19.00;44.00;;;;;;5013739;28;20265;-65
2023/04/21 04:07:37;;;;;;;2.20;2.10;;;19.00;44.10;;;;;;5011679;28;20231;-63
2023/04/21 04:10:03;;;;;;;2.23;2.13;;;19.10;44.20;;;;;;5016496;28;20218;-66
2023/04/21 04:12:28;;;;;;;2.50;2.40;;;19.00;44.10;;;;;;5016690;28;20214;-69
2023/04/21 04:14:54;;;;;;;2.10;2.00;;;19.00;44.10;;;;;;5012198;28;20240;-67
2023/04/21 04:17:19;;;;;;;2.30;2.20;;;19.10;44.20;;;;;;5015269;28;21210;-65
2023/04/21 04:19:45;;;;;;;2.57;2.37;;;19.00;44.10;;;;;;5020669;28;20763;-64
2023/04/21 04:22:11;;;;;;;2.47;2.37;;;19.00;44.10;;;;;;5017018;28;20219;-65
2023/04/21 04:24:36;;;;;;;2.20;2.10;;;19.10;44.10;;;;;;5013981;28;20713;-67
2023/04/21 04:27:02;;;;;;;2.40;2.30;;;19.10;44.20;;;;;;5010421;28;20215;-65
2023/04/21 04:29:28;;;;;;;2.47;2.27;;;19.00;44.90;;;;;;5012127;28;20285;-66
2023/04/21 04:31:54;;;;;;;2.30;2.20;;;19.00;44.10;;;;;;5009792;28;20513;-69
2023/04/21 04:34:22;;;;;;;2.37;2.27;;;19.00;44.10;;;;;;5016618;28;20418;-65
2023/04/21 04:36:49;;;;;;;2.30;2.20;;;19.00;44.00;;;;;;5011839;28;20545;-65
2023/04/21 04:39:15;;;;;;;2.37;2.27;;;19.00;44.00;;;;;;5010597;28;20444;-65
2023/04/21 04:41:40;;;;;;;2.20;2.10;;;19.00;44.00;;;;;;5008578;28;20456;-64
2023/04/21 04:44:06;;;;;;;2.20;2.10;;;19.00;44.00;;;;;;5007600;28;20500;-66
2023/04/21 04:46:32;;;;;;;3.03;2.03;;;19.00;44.10;;;;;;5012534;28;20243;-67
2023/04/21 04:48:59;;;;;;;2.10;2.00;;;19.00;44.00;;;;;;5008336;28;20223;-65
2023/04/21 04:51:24;;;;;;;2.60;2.40;;;19.10;44.20;;;;;;5011790;28;20218;-69
2023/04/21 04:53:50;;;;;;;2.20;2.10;;;19.10;44.20;;;;;;5002263;28;20446;-63
2023/04/21 04:56:15;;;;;;;2.20;2.10;;;19.10;44.20;;;;;;5010038;28;20671;-67
2023/04/21 04:58:41;;;;;;;2.10;2.00;;;19.10;44.20;;;;;;5013937;28;20226;-66
2023/04/21 05:01:14;;;;;;;2.67;2.57;;;19.00;44.10;;;;;;5009788;28;20223;-63
2023/04/21 05:03:40;;;;;;;2.80;2.70;;;19.10;44.10;;;;;;5018186;28;21181;-68
2023/04/21 05:06:06;;;;;;;2.83;2.67;;;19.10;44.10;;;;;;5014884;28;20463;-63
2023/04/21 05:08:31;;;;;;;2.63;2.53;;;19.10;44.30;;;;;;5007583;28;20638;-66
2023/04/21 05:10:57;;;;;;;2.40;2.30;;;19.10;44.10;;;;;;5009509;28;20227;-68
2023/04/21 05:13:23;;;;;;;2.47;2.37;;;19.10;44.20;;;;;;5011173;28;20277;-66
2023/04/21 05:15:48;;;;;;;2.23;2.13;;;19.10;44.20;;;;;;5014107;28;20220;-70
2023/04/21 05:18:14;;;;;;;2.30;2.20;;;19.10;44.90;;;;;;5008936;28;20633;-68
2023/04/21 05:20:42;;;;;;;2.47;2.30;;;19.10;44.10;;;;;;5011493;28;20238;-65
2023/04/21 05:23:08;;;;;;;2.43;2.33;;;19.10;43.90;;;;;;5009229;28;20226;-64
2023/04/21 05:25:33;;;;;;;2.07;1.97;;;19.10;43.90;;;;;;5012991;28;20427;-65
2023/04/21 05:27:59;;;;;;;2.53;2.43;;;19.10;43.90;;;;;;5005480;28;20215;-63
2023/04/21 05:30:24;;;;;;;2.47;2.23;;;19.10;43.90;;;;;;5011456;28;20318;-68
2023/04/21 05:32:50;;;;;;;2.97;2.77;;;19.10;43.90;;;;;;5002524;28;20354;-64
2023/04/21 05:35:16;;;;;;;2.40;2.30;;;19.10;44.00;;;;;;5015860;28;20268;-64
2023/04/21 05:37:41;;;;;;;2.33;2.23;;;19.10;44.00;;;;;;5010010;28;20243;-67
2023/04/21 05:40:07;;;;;;;2.13;2.03;;;19.10;44.00;;;;;;5005034;28;20303;-64
2023/04/21 05:42:33;;;;;;;2.33;2.13;;;19.10;44.20;;;;;;5009779;28;20273;-69
2023/04/21 05:44:58;;;;;;;2.50;2.30;;;19.10;44.20;;;;;;5006010;28;20234;-63
2023/04/21 05:47:24;;;;;;;2.73;2.57;;;19.10;44.20;;;;;;5013625;28;20228;-64
2023/04/21 05:49:52;;;;;;;1.83;1.73;;;19.10;44.20;;;;;;5011715;28;20229;-66
2023/04/21 05:52:20;;;;;;;2.63;2.53;;;19.10;44.20;;;;;;5011069;28;20577;-65
2023/04/21 05:54:46;;;;;;;3.63;2.20;;;19.10;44.30;;;;;;5015264;28;20848;-66
2023/04/21 05:57:11;;;;;;;2.90;2.67;;;19.10;44.10;;;;;;5013056;28;20443;-65
2023/04/21 05:59:37;;;;;;;2.40;2.30;;;19.10;44.20;;;;;;5025959;28;20222;-65
2023/04/21 06:02:03;;;;;;;2.67;2.47;;;19.10;44.20;;;;;;5009143;28;20757;-68
2023/04/21 06:04:28;;;;;;;2.67;2.57;;;19.10;44.10;;;;;;5008300;28;20223;-72
2023/04/21 06:06:54;;;;;;;2.57;2.47;;;19.10;44.20;;;;;;5009245;28;20229;-64
2023/04/21 06:09:19;;;;;;;2.47;2.37;;;19.10;44.10;;;;;;5012859;28;20234;-66
2023/04/21 06:11:45;;;;;;;2.20;2.00;;;19.10;44.10;;;;;;5014192;28;20347;-66
2023/04/21 06:14:10;;;;;;;2.53;2.43;;;19.10;44.10;;;;;;5013484;28;20230;-65
2023/04/21 06:16:36;;;;;;;2.30;2.20;;;19.10;44.10;;;;;;5014715;28;20258;-64
2023/04/21 06:19:02;;;;;;;2.57;2.47;;;19.10;44.20;;;;;;5009179;28;20226;-71
2023/04/21 06:21:27;;;;;;;2.07;1.97;;;19.10;44.10;;;;;;5006677;28;20585;-63
2023/04/21 06:23:53;;;;;;;2.37;2.20;;;19.10;44.10;;;;;;5010733;28;20215;-69
2023/04/21 06:26:18;;;;;;;2.50;2.30;;;19.10;44.10;;;;;;5012433;28;20629;-63
2023/04/21 06:28:44;;;;;;;2.27;2.17;;;19.10;44.10;;;;;;5007542;28;20218;-64
2023/04/21 06:31:14;;;;;;;2.50;2.40;;;19.10;44.10;;;;;;5009318;28;20227;-64
2023/04/21 06:33:39;;;;;;;2.60;2.37;;;19.10;44.20;;;;;;5009176;28;21047;-66
2023/04/21 06:36:05;;;;;;;2.50;2.30;;;19.10;44.10;;;;;;5013938;28;20470;-63
2023/04/21 06:38:31;;;;;;;2.53;2.43;;;19.10;44.10;;;;;;5011805;28;20348;-64
2023/04/21 06:40:57;;;;;;;2.23;2.03;;;19.10;44.20;;;;;;5008589;28;20229;-69
2023/04/21 06:43:22;;;;;;;2.77;2.67;;;19.10;44.20;;;;;;5007433;28;20234;-68
2023/04/21 06:45:48;;;;;;;2.47;2.37;;;19.10;44.20;;;;;;5012675;28;20222;-64
2023/04/21 06:48:13;;;;;;;2.97;2.70;;;19.10;44.20;;;;;;5011625;28;20231;-64
2023/04/21 06:50:39;;;;;;;5.20;2.60;;;19.10;44.20;;;;;;5012411;28;20728;-63
2023/04/21 06:53:05;;;;;;;2.33;2.23;;;19.10;44.20;;;;;;5015971;28;20234;-64
2023/04/21 06:55:31;;;;;;;2.10;2.00;;;19.10;44.20;;;;;;5014124;28;20451;-65
2023/04/21 06:57:56;;;;;;;2.50;2.40;;;19.10;44.10;;;;;;5011710;28;20235;-66
2023/04/21 07:00:22;;;;;;;2.80;2.47;;;19.10;44.20;;;;;;5012835;28;20294;-64
2023/04/21 07:02:47;;;;;;;2.80;2.60;;;19.10;44.10;;;;;;5014938;28;20309;-62
2023/04/21 07:05:13;;;;;;;3.23;2.70;;;19.10;44.20;;;;;;5016703;28;20310;-65
2023/04/21 07:07:38;;;;;;;2.10;2.00;;;19.10;44.20;;;;;;5012813;28;20230;-63
2023/04/21 07:10:04;;;;;;;2.83;2.63;;;19.10;44.10;;;;;;5010921;28;20242;-63
2023/04/21 07:12:30;;;;;;;2.47;2.37;;;19.10;44.20;;;;;;5009414;28;20314;-64
2023/04/21 07:14:55;;;;;;;2.63;2.50;;;19.10;44.10;;;;;;5017966;28;20438;-65
2023/04/21 07:17:21;;;;;;;3.00;2.53;;;19.10;44.20;;;;;;5028045;28;20311;-67
2023/04/21 07:19:46;;;;;;;2.30;2.20;;;19.10;44.10;;;;;;5012172;28;20325;-70
2023/04/21 07:22:12;;;;;;;2.07;1.97;;;19.10;44.20;;;;;;5010561;28;20298;-63
2023/04/21 07:24:38;;;;;;;2.70;2.50;;;19.10;44.10;;;;;;5012177;28;20233;-68
2023/04/21 07:27:03;;;;;;;2.40;2.30;;;19.10;44.10;;;;;;5016167;28;20704;-69
2023/04/21 07:29:29;;;;;;;2.70;2.50;;;19.10;44.10;;;;;;5015986;28;21008;-65
2023/04/21 07:31:57;;;;;;;2.53;2.43;;;19.10;44.10;;;;;;5013200;28;20223;-64
2023/04/21 07:34:23;;;;;;;2.70;2.50;;;19.10;44.20;;;;;;5016361;28;20280;-68
2023/04/21 07:36:50;;;;;;;2.60;2.50;;;19.10;44.10;;;;;;5017098;28;20971;-66
2023/04/21 07:39:16;;;;;;;2.13;2.03;;;19.10;44.10;;;;;;5014688;28;20215;-65
2023/04/21 07:41:41;;;;;;;2.70;2.50;;;19.10;44.20;;;;;;5020501;28;21022;-63
2023/04/21 07:44:07;;;;;;;2.60;2.40;;;19.10;44.30;;;;;;5016073;28;20243;-67
2023/04/21 07:46:32;;;;;;;2.10;2.00;;;19.10;44.20;;;;;;5017293;28;20249;-63
2023/04/21 07:48:59;;;;;;;2.40;2.30;;;19.10;44.20;;;;;;5012951;28;20685;-65
2023/04/21 07:51:26;;;;;;;2.73;2.53;;;19.10;44.20;;;;;;5013491;28;20265;-66
2023/04/21 07:53:52;;;;;;;4.30;2.40;;;19.10;44.20;;;;;;5013701;28;20619;-66
2023/04/21 07:56:17;;;;;;;3.03;2.87;;;19.10;44.10;;;;;;5014892;28;20431;-64
2023/04/21 07:58:43;;;;;;;2.50;2.30;;;19.10;44.10;;;;;;5019019;28;20584;-64
2023/04/21 08:01:08;;;;;;;2.50;2.30;;;19.10;44.10;;;;;;5015220;28;20215;-64
2023/04/21 08:03:34;;;;;;;2.93;2.63;;;19.10;44.10;;;;;;5015815;28;20230;-64
2023/04/21 08:06:00;;;;;;;2.90;2.70;;;19.10;44.00;;;;;;5005947;28;20350;-68
2023/04/21 08:08:26;;;;;;;5.10;4.70;;;19.10;43.90;;;;;;5008709;28;20767;-64
2023/04/21 08:10:52;;;;;;;4.50;4.20;;;19.10;43.90;;;;;;5015547;28;20434;-64
2023/04/21 08:13:19;;;;;;;2.67;2.57;;;19.10;43.90;;;;;;5007800;28;21879;-64
2023/04/21 08:15:45;;;;;;;5.50;5.10;;;19.10;43.90;;;;;;5010380;28;20456;-66
2023/04/21 08:18:10;;;;;;;5.20;4.80;;;19.10;43.90;;;;;;5012222;28;21020;-67
2023/04/21 08:20:36;;;;;;;4.03;3.73;;;19.10;43.90;;;;;;5011877;28;20262;-64
2023/04/21 08:23:01;;;;;;;3.70;3.50;;;19.20;44.00;;;;;;5011189;28;20226;-68
2023/04/21 08:25:27;;;;;;;6.43;6.03;;;19.10;43.90;;;;;;5011270;28;20218;-65
2023/04/21 08:27:53;;;;;;;4.30;4.10;;;19.20;43.90;;;;;;5012899;28;20456;-70
2023/04/21 08:30:19;;;;;;;6.40;6.00;;;19.20;43.90;;;;;;5010491;28;20254;-66
2023/04/21 08:32:44;;;;;;;3.03;2.73;;;19.20;43.60;;;;;;5014074;28;20253;-68
2023/04/21 08:35:10;;;;;;;2.83;2.73;;;19.20;43.70;;;;;;5010309;28;20522;-70
2023/04/21 08:37:37;;;;;;;2.87;2.67;;;19.20;43.90;;;;;;5010775;28;20234;-67
2023/04/21 08:40:05;;;;;;;2.83;2.63;;;19.20;44.00;;;;;;4998927;28;20313;-64
2023/04/21 08:42:31;;;;;;;2.37;2.27;;;19.20;44.00;;;;;;5006657;28;20449;-67
2023/04/21 08:44:56;;;;;;;2.60;2.50;;;19.20;44.00;;;;;;5011760;28;20962;-67
2023/04/21 08:47:23;;;;;;;2.90;2.70;;;19.20;44.00;;;;;;5013014;28;20435;-68
2023/04/21 08:49:50;;;;;;;3.07;2.87;;;19.10;43.90;;;;;;5010736;28;20241;-65
2023/04/21 08:52:16;;;;;;;2.90;2.70;;;19.10;43.90;;;;;;5014763;28;20423;-64
2023/04/21 08:54:42;;;;;;;2.53;2.40;;;19.10;43.90;;;;;;5011068;28;20462;-65
2023/04/21 08:57:08;;;;;;;2.63;2.53;;;19.10;43.90;;;;;;5009164;28;20525;-63
2023/04/21 08:59:33;;;;;;;2.97;2.77;;;19.20;43.90;;;;;;5014107;28;20227;-66
2023/04/21 09:02:08;;;;;;;3.10;2.90;;;19.20;44.00;;;;;;5010238;28;20305;-69
2023/04/21 09:04:36;;;;;;;2.87;2.67;;;19.10;43.80;;;;;;5006976;28;20222;-66
2023/04/21 09:07:02;;;;;;;2.97;2.77;;;19.10;43.90;;;;;;5012075;28;20450;-63
2023/04/21 09:09:27;;;;;;;2.90;2.80;;;19.20;44.00;;;;;;5013379;28;20478;-65
2023/04/21 09:11:56;;;;;;;2.70;2.50;;;19.10;43.90;;;;;;5010604;28;20222;-72
2023/04/21 09:14:21;;;;;;;2.97;2.87;;;19.20;44.00;;;;;;5013305;28;20222;-67
2023/04/21 09:16:59;;;;;;;2.80;2.60;;;19.20;44.00;;;;;;5013469;28;20516;-68
2023/04/21 09:19:33;;;;;;;2.73;2.63;;;19.20;44.00;;;;;;5011544;28;20925;-68
2023/04/21 09:21:59;;;;;;;3.10;2.90;;;19.10;43.90;;;;;;5012771;28;20508;-68
2023/04/21 09:24:25;;;;;;;2.97;2.77;;;19.20;44.00;;;;;;5009181;28;20448;-69
2023/04/21 09:26:52;;;;;;;2.90;2.70;;;19.20;44.00;;;;;;5010823;28;20447;-65
2023/04/21 09:29:21;;;;;;;2.80;2.60;;;19.20;43.90;;;;;;5008877;28;20761;-68
2023/04/21 09:31:49;;;;;;;2.50;2.30;;;19.20;44.00;;;;;;5010757;28;21127;-66
2023/04/21 09:34:23;;;;;;;2.57;2.47;;;19.20;44.00;;;;;;5011791;28;20481;-66
2023/04/21 09:37:01;;;;;;;2.50;2.40;;;19.20;44.00;;;;;;5009069;28;20962;-66
2023/04/21 09:39:31;;;;;;;2.50;2.40;;;19.10;43.90;;;;;;5008226;28;20801;-65
2023/04/21 09:41:58;;;;;;;2.50;2.40;;;19.20;44.00;;;;;;5011848;28;20480;-68
2023/04/21 09:44:27;;;;;;;2.67;2.57;;;19.20;44.00;;;;;;5010282;28;20460;-67
2023/04/21 09:47:00;;;;;;;3.20;3.00;;;19.20;44.00;;;;;;5004276;28;20487;-67
2023/04/21 09:49:35;;;;;;;3.20;3.00;;;19.20;44.00;;;;;;5012561;28;20464;-64
2023/04/21 09:52:01;;;;;;;2.50;2.40;;;19.20;44.00;;;;;;5008514;28;20445;-63
2023/04/21 09:54:32;;;;;;;2.80;2.70;;;19.10;43.90;;;;;;5013889;28;20502;-67
2023/04/21 09:57:03;;;;;;;2.90;2.77;;;19.20;44.00;;;;;;5010592;28;20454;-67
2023/04/21 09:59:33;;;;;;;2.90;2.70;;;19.20;44.00;;;;;;5008566;28;20446;-69
2023/04/21 10:01:59;;;;;;;2.73;2.63;;;19.20;44.70;;;;;;5003112;28;20516;-68
2023/04/21 10:04:27;;;;;;;2.70;2.50;;;19.20;44.00;;;;;;5006755;28;20965;-64
2023/04/21 10:06:53;;;;;;;2.83;2.63;;;19.20;44.00;;;;;;5004642;28;20486;-68
2023/04/21 10:09:22;;;;;;;2.27;2.17;;;19.20;44.00;;;;;;5010810;28;20431;-67
2023/04/21 10:11:48;;;;;;;2.50;2.40;;;19.20;44.00;;;;;;5006990;28;20431;-70
2023/04/21 10:14:13;;;;;;;2.47;2.37;;;19.20;44.00;;;;;;5006499;28;20774;-68
2023/04/21 10:16:39;;;;;;;2.73;2.63;;;19.20;44.00;;;;;;5006886;28;21656;-69
2023/04/21 10:19:35;;;;;;;3.00;2.80;;;19.20;44.00;;;;;;5007763;28;20219;-65
2023/04/21 10:22:01;;;;;;;2.70;2.60;;;19.20;44.00;;;;;;4998385;28;20249;-71
2023/04/21 10:24:30;;;;;;;3.30;3.10;;;19.20;44.00;;;;;;5008672;28;20471;-67
2023/04/21 10:26:58;;;;;;;3.27;3.07;;;19.20;44.00;;;;;;5004340;28;20463;-64
2023/04/21 10:29:32;;;;;;;3.30;2.50;;;19.20;44.00;;;;;;5005350;28;20469;-68
2023/04/21 10:31:58;;;;;;;2.33;2.23;;;19.20;44.00;;;;;;5004091;28;20961;-70
2023/04/21 10:34:36;;;;;;;3.43;3.23;;;19.20;44.00;;;;;;5003653;28;20519;-68
2023/04/21 10:37:05;;;;;;;2.60;2.40;;;19.20;44.00;;;;;;5004640;28;20245;-65
2023/04/21 10:39:35;;;;;;;2.90;2.70;;;19.20;43.90;;;;;;5006272;28;20481;-67
2023/04/21 10:42:16;;;;;;;2.63;2.43;;;19.20;44.00;;;;;;5006588;28;20456;-64
2023/04/21 10:44:42;;;;;;;2.47;2.33;;;19.20;44.00;;;;;;4999659;28;20467;-70
2023/04/21 10:47:08;;;;;;;2.37;2.27;;;19.20;44.00;;;;;;5008453;28;20446;-64
2023/04/21 10:49:38;;;;;;;2.50;2.40;;;19.20;44.00;;;;;;5003490;28;20464;-66
2023/04/21 10:52:09;;;;;;;2.40;2.30;;;19.20;44.00;;;;;;5006601;28;20253;-64
2023/04/21 10:54:36;;;;;;;2.40;2.30;;;19.20;44.00;;;;;;5005266;28;20492;-65
2023/04/21 10:57:06;;;;;;;2.40;2.30;;;19.20;44.00;;;;;;5007952;28;20516;-66
2023/04/21 10:59:33;;;;;;;2.50;2.40;;;19.20;44.00;;;;;;5013081;28;20428;-65
2023/04/21 11:01:59;;;;;;;2.50;2.33;;;19.20;44.10;;;;;;5012129;28;21111;-68
2023/04/21 11:04:25;;;;;;;2.23;2.13;;;19.20;44.20;;;;;;5010508;28;20437;-63
2023/04/21 11:07:05;;;;;;;2.43;2.33;;;19.20;44.10;;;;;;5006071;28;20650;-70
2023/04/21 11:09:31;;;;;;;2.30;2.20;;;19.20;44.30;;;;;;5010113;28;20226;-64
2023/04/21 11:11:57;;;;;;;2.63;2.43;;;19.20;44.30;;;;;;5010101;28;20464;-67
2023/04/21 11:14:23;;;;;;;2.27;2.07;;;19.20;44.40;;;;;;5013335;28;20326;-71
2023/04/21 11:16:48;;;;;;;3.00;2.80;;;19.20;44.40;;;;;;5009410;28;22521;-69
2023/04/21 11:19:14;;;;;;;2.67;2.47;;;19.20;44.40;;;;;;5011814;28;20310;-67
2023/04/21 11:21:40;;;;;;;2.47;2.33;;;19.20;44.40;;;;;;5010714;28;20245;-63
2023/04/21 11:24:08;;;;;;;2.63;2.53;;;19.20;44.50;;;;;;5012013;28;20230;-63
2023/04/21 11:26:37;;;;;;;2.50;2.30;;;19.20;44.40;;;;;;5006386;28;20222;-64
2023/04/21 11:29:07;;;;;;;2.60;2.50;;;19.20;44.50;;;;;;5012933;28;20456;-63
2023/04/21 11:31:33;;;;;;;2.47;2.27;;;19.20;44.50;;;;;;5006951;28;20452;-63
2023/04/21 11:34:00;;;;;;;2.53;2.43;;;19.20;44.50;;;;;;5009231;28;20438;-69
2023/04/21 11:36:26;;;;;;;2.47;2.37;;;19.20;44.60;;;;;;5007404;28;20471;-67
2023/04/21 11:38:52;;;;;;;2.50;2.30;;;19.20;44.50;;;;;;5008341;28;20460;-64
2023/04/21 11:41:22;;;;;;;2.30;2.20;;;19.20;44.50;;;;;;5008825;28;20313;-66
2023/04/21 11:43:48;;;;;;;2.80;2.70;;;19.30;44.60;;;;;;5006852;28;20340;-65
2023/04/21 11:46:25;;;;;;;2.80;2.60;;;19.30;44.70;;;;;;5004932;28;20433;-64
2023/04/21 11:48:58;;;;;;;2.90;2.70;;;19.30;44.60;;;;;;5004178;28;21403;-68
2023/04/21 11:51:24;;;;;;;2.73;2.63;;;19.30;44.60;;;;;;4999479;28;20557;-69
2023/04/21 11:53:51;;;;;;;2.87;2.53;;;19.30;44.60;;;;;;5004854;28;20430;-66
2023/04/21 11:56:20;;;;;;;2.97;2.77;;;19.30;44.60;;;;;;5009158;28;21047;-67
2023/04/21 11:58:47;;;;;;;3.20;3.00;;;19.30;44.60;;;;;;5009361;28;20464;-69
2023/04/21 12:01:15;;;;;;;2.70;2.60;;;19.30;44.70;;;;;;5008458;28;20525;-67
2023/04/21 12:03:41;;;;;;;2.60;2.50;;;19.20;44.50;;;;;;5008206;28;20464;-66
2023/04/21 12:06:07;;;;;;;2.70;2.60;;;19.20;44.50;;;;;;5009064;28;20467;-66
2023/04/21 12:08:33;;;;;;;3.07;2.90;;;19.30;44.60;;;;;;5006823;28;20673;-65
2023/04/21 12:11:01;;;;;;;2.80;2.70;;;19.30;44.60;;;;;;5010479;28;20246;-66
2023/04/21 12:13:27;;;;;;;2.63;2.43;;;19.20;44.50;;;;;;5013812;28;20464;-71
2023/04/21 12:15:53;;;;;;;2.93;2.73;;;19.20;44.50;;;;;;5006240;28;20542;-68
2023/04/21 12:18:18;;;;;;;3.03;2.83;;;19.20;44.40;;;;;;5012160;28;20476;-65
2023/04/21 12:20:52;;;;;;;3.27;3.07;;;19.20;44.30;;;;;;5010138;28;20227;-67
2023/04/21 12:23:17;;;;;;;3.40;3.20;;;19.30;44.50;;;;;;5011772;28;20222;-65
2023/04/21 12:25:45;;;;;;;3.27;3.07;;;19.20;44.40;;;;;;5010403;28;20467;-66
2023/04/21 12:28:12;;;;;;;2.50;2.40;;;19.20;44.30;;;;;;5008715;28;20227;-69
2023/04/21 12:30:38;;;;;;;2.93;2.73;;;19.20;44.40;;;;;;5013780;28;20515;-69
2023/04/21 12:33:03;;;;;;;2.87;2.67;;;19.20;44.30;;;;;;5012367;28;20467;-66
2023/04/21 12:35:31;;;;;;;2.90;2.70;;;19.30;44.50;;;;;;5016616;28;20222;-71
2023/04/21 12:37:56;;;;;;;3.00;2.80;;;19.20;44.40;;;;;;5011432;28;20237;-70
2023/04/21 12:40:22;;;;;;;3.20;3.00;;;19.20;44.50;;;;;;5012825;28;20435;-69
2023/04/21 12:42:47;;;;;;;3.37;3.17;;;19.30;44.50;;;;;;5013176;28;20238;-68
2023/04/21 12:45:13;;;;;;;3.23;2.97;;;19.20;44.40;;;;;;5017255;28;20693;-66